createdAt,value
2023-02-04T00:00:25.197Z,2.73
2023-02-04T00:02:53.671Z,1.50
2023-02-04T00:05:22.160Z,2.40
2023-02-04T00:07:50.544Z,1.67
2023-02-04T00:10:19.080Z,5.90
2023-02-04T00:12:47.465Z,5.47
2023-02-04T00:15:17.228Z,2.40
2023-02-04T00:17:45.606Z,2.93
2023-02-04T00:20:14.227Z,2.53
2023-02-04T00:22:42.637Z,1.77
2023-02-04T00:25:11.036Z,4.43
2023-02-04T00:27:39.482Z,2.97
2023-02-04T00:30:08.665Z,3.63
2023-02-04T00:32:38.463Z,3.67
2023-02-04T00:35:07.065Z,6.30
2023-02-04T00:37:35.494Z,4.63
2023-02-04T00:40:03.906Z,4.07
2023-02-04T00:42:32.355Z,2.53
2023-02-04T00:45:00.770Z,4.43
2023-02-04T00:47:29.161Z,2.33
2023-02-04T00:49:59.020Z,2.73
2023-02-04T00:52:27.466Z,2.40
2023-02-04T00:54:55.897Z,4.50
2023-02-04T00:57:24.242Z,2.20
2023-02-04T00:59:52.623Z,3.27
2023-02-04T01:02:21.076Z,1.67
2023-02-04T01:04:49.457Z,3.33
2023-02-04T01:07:19.342Z,1.60
2023-02-04T01:09:47.740Z,3.90
2023-02-04T01:12:16.152Z,3.37
2023-02-04T01:14:44.785Z,1.90
2023-02-04T01:17:13.228Z,1.43
2023-02-04T01:19:41.608Z,2.10
2023-02-04T01:22:10.021Z,2.70
2023-02-04T01:24:39.879Z,2.50
2023-02-04T01:27:08.238Z,2.47
2023-02-04T01:29:36.633Z,0.90
2023-02-04T01:32:05.133Z,1.43
2023-02-04T01:34:33.662Z,2.23
2023-02-04T01:37:02.103Z,1.37
2023-02-04T01:39:30.503Z,2.70
2023-02-04T01:42:01.056Z,1.70
2023-02-04T01:44:29.729Z,2.37
2023-02-04T01:46:58.090Z,2.73
2023-02-04T01:49:26.537Z,2.87
2023-02-04T01:51:55.065Z,2.57
2023-02-04T01:54:23.520Z,2.43
2023-02-04T01:56:52.008Z,2.30
2023-02-04T01:59:21.817Z,1.63
2023-02-04T02:01:51.065Z,1.60
2023-02-04T02:04:20.829Z,1.73
2023-02-04T02:06:50.777Z,3.80
2023-02-04T02:09:19.161Z,1.30
2023-02-04T02:11:47.613Z,2.40
2023-02-04T02:14:16.079Z,1.47
2023-02-04T02:16:45.956Z,2.23
2023-02-04T02:19:15.615Z,1.40
2023-02-04T02:21:47.231Z,2.13
2023-02-04T02:24:30.485Z,2.23
2023-02-04T02:27:01.904Z,6.30
2023-02-04T02:29:30.346Z,2.07
2023-02-04T02:31:59.170Z,2.03
2023-02-04T02:34:28.161Z,2.30
2023-02-04T02:36:56.990Z,1.77
2023-02-04T02:39:25.654Z,2.87
2023-02-04T02:41:54.176Z,0.90
2023-02-04T02:44:24.109Z,1.80
2023-02-04T02:46:52.541Z,1.70
2023-02-04T02:49:21.622Z,4.10
2023-02-04T02:51:50.138Z,1.37
2023-02-04T02:54:24.150Z,1.63
2023-02-04T02:56:52.761Z,2.37
2023-02-04T02:59:21.583Z,1.53
2023-02-04T03:01:53.883Z,1.27
2023-02-04T03:04:22.605Z,1.20
2023-02-04T03:06:51.370Z,1.30
2023-02-04T03:09:19.979Z,1.43
2023-02-04T03:11:48.384Z,1.50
2023-02-04T03:14:17.218Z,2.83
2023-02-04T03:16:45.735Z,0.80
2023-02-04T03:19:15.784Z,1.07
2023-02-04T03:21:44.501Z,2.40
2023-02-04T03:24:12.969Z,3.47
2023-02-04T03:26:41.389Z,1.13
2023-02-04T03:29:10.166Z,1.10
2023-02-04T03:31:39.014Z,0.87
2023-02-04T03:34:07.676Z,1.93
2023-02-04T03:36:37.772Z,3.07
2023-02-04T03:39:06.258Z,3.07
2023-02-04T03:41:34.650Z,1.20
2023-02-04T03:44:03.068Z,1.10
2023-02-04T03:46:31.595Z,1.10
2023-02-04T03:49:00.120Z,2.03
2023-02-04T03:51:28.562Z,1.20
2023-02-04T03:53:58.359Z,1.67
2023-02-04T03:56:26.781Z,2.53
2023-02-04T03:58:55.176Z,0.90
2023-02-04T04:01:23.702Z,1.20
2023-02-04T04:03:52.209Z,0.90
2023-02-04T04:06:20.583Z,0.80
2023-02-04T04:08:49.001Z,1.73
2023-02-04T04:11:18.832Z,1.57
2023-02-04T04:13:47.250Z,1.20
2023-02-04T04:16:15.734Z,1.53
2023-02-04T04:18:44.160Z,1.40
2023-02-04T04:21:12.500Z,1.07
2023-02-04T04:23:40.864Z,1.13
2023-02-04T04:26:09.259Z,0.87
2023-02-04T04:28:39.030Z,0.97
2023-02-04T04:31:07.705Z,0.80
2023-02-04T04:33:36.135Z,1.63
2023-02-04T04:36:04.493Z,0.87
2023-02-04T04:38:32.865Z,1.10
2023-02-04T04:41:01.254Z,3.33
2023-02-04T04:43:29.619Z,1.27
2023-02-04T04:45:59.395Z,1.00
2023-02-04T04:48:27.813Z,1.33
2023-02-04T04:50:56.204Z,2.23
2023-02-04T04:53:24.585Z,1.17
2023-02-04T04:55:52.962Z,4.03
2023-02-04T04:58:21.306Z,11.80
2023-02-04T05:00:49.772Z,13.27
2023-02-04T05:03:19.645Z,14.07
2023-02-04T05:05:48.049Z,12.77
2023-02-04T05:08:17.051Z,11.07
2023-02-04T05:10:45.757Z,12.30
2023-02-04T05:13:14.161Z,10.70
2023-02-04T05:15:42.609Z,10.90
2023-02-04T05:18:11.033Z,11.23
2023-02-04T05:20:40.789Z,8.77
2023-02-04T05:23:09.177Z,10.00
2023-02-04T05:25:37.603Z,10.23
2023-02-04T05:28:06.204Z,9.13
2023-02-04T05:30:34.969Z,6.87
2023-02-04T05:33:03.523Z,10.00
2023-02-04T05:35:31.941Z,8.77
2023-02-04T05:38:01.737Z,14.13
2023-02-04T05:40:30.524Z,16.57
2023-02-04T05:42:59.280Z,7.83
2023-02-04T05:45:27.701Z,9.40
2023-02-04T05:47:56.088Z,11.33
2023-02-04T05:50:24.489Z,11.07
2023-02-04T05:52:52.922Z,9.67
2023-02-04T05:55:22.711Z,11.70
2023-02-04T05:57:51.105Z,9.07
2023-02-04T06:00:19.669Z,9.47
2023-02-04T06:02:48.060Z,9.50
2023-02-04T06:05:16.558Z,8.00
2023-02-04T06:07:44.934Z,10.57
2023-02-04T06:10:13.419Z,12.73
2023-02-04T06:12:43.222Z,9.97
2023-02-04T06:15:11.896Z,3.23
2023-02-04T06:17:40.362Z,1.93
2023-02-04T06:20:09.179Z,0.97
2023-02-04T06:22:37.574Z,0.80
2023-02-04T06:25:06.180Z,0.97
2023-02-04T06:27:34.557Z,185.50
2023-02-04T06:30:04.418Z,13.60
2023-02-04T06:32:32.824Z,15.13
2023-02-04T06:35:01.164Z,17.13
2023-02-04T06:37:29.562Z,15.97
2023-02-04T06:39:57.974Z,10.63
2023-02-04T06:42:26.557Z,8.50
2023-02-04T06:44:55.356Z,10.03
2023-02-04T06:47:25.164Z,10.73
2023-02-04T06:49:53.547Z,8.23
2023-02-04T06:52:21.912Z,19.57
2023-02-04T06:54:50.337Z,13.17
2023-02-04T06:57:18.763Z,11.03
2023-02-04T06:59:48.120Z,8.20
2023-02-04T07:02:16.545Z,10.20
2023-02-04T07:04:47.763Z,12.67
2023-02-04T07:07:16.351Z,13.20
2023-02-04T07:09:44.735Z,14.43
2023-02-04T07:12:15.245Z,11.70
2023-02-04T07:14:44.549Z,14.90
2023-02-04T07:17:12.947Z,18.27
2023-02-04T07:19:41.304Z,14.73
2023-02-04T07:22:11.080Z,13.07
2023-02-04T07:24:39.459Z,11.80
2023-02-04T07:27:07.846Z,10.00
2023-02-04T07:29:36.273Z,9.90
2023-02-04T07:32:04.829Z,10.73
2023-02-04T07:34:33.464Z,9.67
2023-02-04T07:37:01.870Z,8.67
2023-02-04T07:39:31.748Z,10.10
2023-02-04T07:42:00.166Z,11.77
2023-02-04T07:44:28.624Z,11.23
2023-02-04T07:46:57.638Z,13.00
2023-02-04T07:49:26.788Z,8.77
2023-02-04T07:51:55.256Z,14.10
2023-02-04T07:54:23.622Z,10.77
2023-02-04T07:56:53.403Z,7.30
2023-02-04T07:59:21.806Z,10.93
2023-02-04T08:01:50.279Z,9.77
2023-02-04T08:04:18.795Z,10.77
2023-02-04T08:06:47.173Z,10.80
2023-02-04T08:09:15.597Z,9.77
2023-02-04T08:11:43.974Z,8.60
2023-02-04T08:14:13.736Z,9.40
2023-02-04T08:16:42.119Z,12.70
2023-02-04T08:19:10.516Z,15.57
2023-02-04T08:21:38.899Z,35.07
2023-02-04T08:24:07.551Z,11.13
2023-02-04T08:26:35.917Z,12.63
2023-02-04T08:29:04.589Z,11.87
2023-02-04T08:31:34.519Z,12.73
2023-02-04T08:34:02.936Z,14.17
2023-02-04T08:36:31.368Z,8.40
2023-02-04T08:38:59.809Z,10.50
2023-02-04T08:41:28.232Z,10.20
2023-02-04T08:43:56.610Z,13.47
2023-02-04T08:46:25.087Z,9.90
2023-02-04T08:48:54.899Z,10.10
2023-02-04T08:51:23.329Z,10.23
2023-02-04T08:53:51.712Z,8.73
2023-02-04T08:56:20.634Z,8.13
2023-02-04T08:58:49.153Z,10.67
2023-02-04T09:01:17.768Z,16.30
2023-02-04T09:03:46.210Z,12.17
2023-02-04T09:06:16.085Z,22.73
2023-02-04T09:08:44.449Z,35.20
2023-02-04T09:11:13.059Z,22.13
2023-02-04T09:13:41.494Z,33.13
2023-02-04T09:16:10.878Z,22.60
2023-02-04T09:18:39.347Z,44.10
2023-02-04T09:21:07.848Z,30.47
2023-02-04T09:23:37.774Z,16.20
2023-02-04T09:26:06.402Z,46.90
2023-02-04T09:28:34.867Z,33.13
2023-02-04T09:31:04.594Z,25.77
2023-02-04T09:33:33.100Z,41.20
2023-02-04T09:36:01.567Z,15.43
2023-02-04T09:38:29.974Z,32.57
2023-02-04T09:41:01.736Z,30.10
2023-02-04T09:43:31.475Z,57.97
2023-02-04T09:46:00.383Z,29.20
2023-02-04T09:48:28.901Z,33.53
2023-02-04T09:51:01.561Z,52.60
2023-02-04T09:53:31.809Z,28.37
2023-02-04T09:56:01.618Z,43.77
2023-02-04T09:58:33.078Z,31.53
2023-02-04T10:01:03.227Z,20.63
2023-02-04T10:03:31.760Z,27.63
2023-02-04T10:06:00.160Z,20.17
2023-02-04T10:08:30.842Z,15.90
2023-02-04T10:10:59.266Z,12.27
2023-02-04T10:13:34.834Z,14.23
2023-02-04T10:16:03.398Z,14.00
2023-02-04T10:18:33.317Z,13.53
2023-02-04T10:21:06.307Z,17.27
2023-02-04T10:23:34.721Z,15.17
2023-02-04T10:26:03.142Z,14.70
2023-02-04T10:28:36.753Z,18.83
2023-02-04T10:31:05.367Z,33.13
2023-02-04T10:33:35.406Z,12.93
2023-02-04T10:36:03.793Z,19.20
2023-02-04T10:38:32.209Z,13.00
2023-02-04T10:41:03.923Z,16.73
2023-02-04T10:43:32.294Z,16.60
2023-02-04T10:46:03.756Z,17.57
2023-02-04T10:48:32.722Z,13.97
2023-02-04T10:51:01.163Z,22.23
2023-02-04T10:53:47.290Z,18.27
2023-02-04T10:56:17.960Z,7.93
2023-02-04T10:58:46.539Z,11.63
2023-02-04T11:01:17.297Z,14.17
2023-02-04T11:03:48.040Z,12.87
2023-02-04T11:06:21.790Z,13.03
2023-02-04T11:08:51.576Z,10.30
2023-02-04T11:11:21.477Z,13.50
2023-02-04T11:14:00.874Z,11.07
2023-02-04T11:16:32.805Z,8.47
2023-02-04T11:19:02.316Z,8.80
2023-02-04T11:21:31.409Z,12.87
2023-02-04T11:24:06.918Z,9.40
2023-02-04T11:26:36.253Z,8.10
2023-02-04T11:29:19.501Z,7.67
2023-02-04T11:32:00.343Z,11.63
2023-02-04T11:34:33.195Z,6.60
2023-02-04T11:37:21.325Z,7.93
2023-02-04T11:39:50.299Z,7.43
2023-02-04T11:42:20.276Z,8.63
2023-02-04T11:44:55.383Z,12.37
2023-02-04T11:47:26.759Z,9.50
2023-02-04T11:49:57.479Z,9.33
2023-02-04T11:52:25.904Z,11.10
2023-02-04T11:54:58.317Z,11.90
2023-02-04T11:57:27.134Z,9.10
2023-02-04T11:59:55.852Z,13.07
2023-02-04T12:02:26.002Z,10.07
2023-02-04T12:04:59.532Z,8.43
2023-02-04T12:07:29.214Z,11.77
2023-02-04T12:09:57.972Z,10.23
2023-02-04T12:12:27.561Z,9.33
2023-02-04T12:14:59.520Z,9.07
2023-02-04T12:17:27.893Z,13.80
2023-02-04T12:19:56.310Z,18.83
2023-02-04T12:22:26.327Z,9.37
2023-02-04T12:24:54.741Z,12.43
2023-02-04T12:27:23.111Z,9.57
2023-02-04T12:29:51.562Z,15.17
2023-02-04T12:32:19.965Z,8.10
2023-02-04T12:34:48.336Z,9.40
2023-02-04T12:37:16.760Z,11.97
2023-02-04T12:39:46.593Z,9.23
2023-02-04T12:42:15.005Z,13.57
2023-02-04T12:44:43.381Z,12.80
2023-02-04T12:47:11.835Z,17.37
2023-02-04T12:49:40.215Z,8.23
2023-02-04T12:52:08.625Z,9.83
2023-02-04T12:54:36.988Z,9.40
2023-02-04T12:57:06.772Z,11.53
2023-02-04T12:59:35.249Z,8.13
2023-02-04T13:02:03.612Z,7.73
2023-02-04T13:04:32.046Z,10.17
2023-02-04T13:07:02.284Z,9.23
2023-02-04T13:09:31.793Z,8.33
2023-02-04T13:12:00.173Z,11.67
2023-02-04T13:14:29.966Z,14.83
2023-02-04T13:16:58.409Z,8.50
2023-02-04T13:19:26.846Z,7.53
2023-02-04T13:21:55.268Z,9.13
2023-02-04T13:24:23.672Z,11.43
2023-02-04T13:26:52.137Z,8.77
2023-02-04T13:29:21.909Z,14.13
2023-02-04T13:31:52.179Z,8.10
2023-02-04T13:34:20.710Z,8.93
2023-02-04T13:36:49.138Z,9.30
2023-02-04T13:39:17.530Z,8.40
2023-02-04T13:41:46.268Z,10.83
2023-02-04T13:44:14.672Z,11.57
2023-02-04T13:46:43.070Z,6.93
2023-02-04T13:49:12.847Z,26.60
2023-02-04T13:51:41.254Z,15.17
2023-02-04T13:54:09.634Z,22.53
2023-02-04T13:56:38.038Z,17.87
2023-02-04T13:59:06.428Z,21.10
2023-02-04T14:01:34.926Z,12.87
2023-02-04T14:04:03.500Z,11.07
2023-02-04T14:06:35.108Z,12.63
2023-02-04T14:09:03.795Z,11.87
2023-02-04T14:11:32.250Z,27.10
2023-02-04T14:14:00.680Z,12.03
2023-02-04T14:16:29.094Z,9.77
2023-02-04T14:18:57.504Z,9.97
2023-02-04T14:21:25.971Z,7.40
2023-02-04T14:23:55.774Z,12.23
2023-02-04T14:26:24.137Z,12.90
2023-02-04T14:28:52.746Z,8.23
2023-02-04T14:31:21.166Z,10.23
2023-02-04T14:33:50.481Z,20.10
2023-02-04T14:36:18.948Z,9.07
2023-02-04T14:38:47.425Z,11.57
2023-02-04T14:41:20.065Z,9.07
2023-02-04T14:43:48.545Z,14.47
2023-02-04T14:46:16.996Z,11.27
2023-02-04T14:48:45.793Z,9.40
2023-02-04T14:51:14.301Z,8.93
2023-02-04T14:53:48.090Z,9.33
2023-02-04T14:56:18.596Z,10.23
2023-02-04T14:58:47.321Z,10.50
2023-02-04T15:01:15.788Z,8.40
2023-02-04T15:03:44.217Z,10.93
2023-02-04T15:06:12.617Z,12.87
2023-02-04T15:08:41.138Z,7.57
2023-02-04T15:11:09.622Z,8.37
2023-02-04T15:13:39.474Z,16.53
2023-02-04T15:16:08.199Z,9.73
2023-02-04T15:18:36.916Z,11.00
2023-02-04T15:21:05.432Z,15.43
2023-02-04T15:23:33.869Z,21.00
2023-02-04T15:26:02.546Z,16.33
2023-02-04T15:28:31.455Z,11.70
2023-02-04T15:31:02.109Z,16.67
2023-02-04T15:33:30.678Z,13.17
2023-02-04T15:35:59.037Z,9.97
2023-02-04T15:38:27.445Z,13.60
2023-02-04T15:40:55.853Z,11.53
2023-02-04T15:43:24.365Z,10.53
2023-02-04T15:45:52.802Z,26.30
2023-02-04T15:48:24.163Z,18.83
2023-02-04T15:50:52.804Z,11.37
2023-02-04T15:53:21.240Z,12.03
2023-02-04T15:55:49.731Z,11.90
2023-02-04T15:58:18.216Z,9.80
2023-02-04T16:00:46.666Z,12.47
2023-02-04T16:03:15.064Z,10.53
2023-02-04T16:05:44.850Z,13.70
2023-02-04T16:08:13.265Z,16.50
2023-02-04T16:10:41.670Z,12.97
2023-02-04T16:13:10.097Z,12.73
2023-02-04T16:15:38.582Z,10.97
2023-02-04T16:18:07.130Z,9.63
2023-02-04T16:20:35.580Z,10.60
2023-02-04T16:23:07.177Z,10.53
2023-02-04T16:25:35.718Z,14.70
2023-02-04T16:28:05.549Z,25.83
2023-02-04T16:30:34.078Z,18.87
2023-02-04T16:33:02.519Z,20.27
2023-02-04T16:35:32.907Z,21.43
2023-02-04T16:38:01.431Z,20.03
2023-02-04T16:40:31.474Z,19.97
2023-02-04T16:43:00.042Z,14.23
2023-02-04T16:45:28.469Z,17.73
2023-02-04T16:47:56.888Z,23.90
2023-02-04T16:50:25.303Z,19.00
2023-02-04T16:52:53.700Z,19.63
2023-02-04T16:55:22.068Z,17.93
2023-02-04T16:57:51.828Z,21.27
2023-02-04T17:00:20.575Z,17.87
2023-02-04T17:02:49.023Z,34.80
2023-02-04T17:05:17.438Z,22.10
2023-02-04T17:07:45.906Z,18.87
2023-02-04T17:10:14.287Z,17.63
2023-02-04T17:12:42.680Z,18.17
2023-02-04T17:15:13.908Z,18.30
2023-02-04T17:17:42.315Z,20.40
2023-02-04T17:20:11.297Z,14.83
2023-02-04T17:22:39.710Z,13.57
2023-02-04T17:25:08.498Z,19.97
2023-02-04T17:27:36.942Z,15.73
2023-02-04T17:30:05.617Z,17.37
2023-02-04T17:32:35.366Z,38.03
2023-02-04T17:35:03.769Z,41.33
2023-02-04T17:37:32.151Z,18.93
2023-02-04T17:40:00.586Z,16.50
2023-02-04T17:42:29.057Z,22.43
2023-02-04T17:44:57.674Z,24.27
2023-02-04T17:47:26.104Z,28.77
2023-02-04T17:49:56.281Z,30.80
2023-02-04T17:52:26.592Z,33.27
2023-02-04T17:54:55.008Z,38.70
2023-02-04T17:57:23.455Z,46.27
2023-02-04T17:59:51.935Z,39.33
2023-02-04T18:02:25.066Z,38.10
2023-02-04T18:04:54.308Z,45.13
2023-02-04T18:07:24.245Z,44.23
2023-02-04T18:09:52.644Z,49.03
2023-02-04T18:12:21.603Z,58.70
2023-02-04T18:14:49.958Z,57.20
2023-02-04T18:17:18.335Z,59.40
2023-02-04T18:19:46.739Z,64.97
2023-02-04T18:22:16.831Z,67.43
2023-02-04T18:24:48.886Z,67.40
2023-02-04T18:27:18.840Z,62.53
2023-02-04T18:29:48.989Z,74.87
2023-02-04T18:32:18.850Z,83.63
2023-02-04T18:34:48.283Z,84.07
2023-02-04T18:37:28.401Z,88.83
2023-02-04T18:39:59.347Z,88.13
2023-02-04T18:42:28.466Z,85.30
2023-02-04T18:44:56.956Z,94.90
2023-02-04T18:47:31.668Z,97.07
2023-02-04T18:50:01.615Z,93.27
2023-02-04T18:52:37.418Z,78.47
2023-02-04T18:55:18.829Z,84.43
2023-02-04T18:57:47.216Z,81.40
2023-02-04T19:00:21.502Z,87.63
2023-02-04T19:02:51.353Z,85.87
2023-02-04T19:05:26.955Z,81.17
2023-02-04T19:07:58.873Z,79.83
2023-02-04T19:10:31.446Z,89.90
2023-02-04T19:13:02.467Z,79.00
2023-02-04T19:15:39.591Z,225.97
2023-02-04T19:18:17.777Z,100.17
2023-02-04T19:20:46.236Z,75.13
2023-02-04T19:23:16.154Z,69.00
2023-02-04T19:25:47.274Z,63.90
2023-02-04T19:28:24.399Z,74.57
2023-02-04T19:30:55.938Z,92.70
2023-02-04T19:33:27.406Z,86.00
2023-02-04T19:35:55.790Z,97.97
2023-02-04T19:38:31.609Z,106.47
2023-02-04T19:41:01.433Z,90.23
2023-02-04T19:43:37.116Z,134.60
2023-02-04T19:46:18.433Z,100.77
2023-02-04T19:48:47.770Z,104.77
2023-02-04T19:51:23.693Z,105.17
2023-02-04T19:53:52.835Z,114.37
2023-02-04T19:56:33.879Z,116.93
2023-02-04T19:59:04.082Z,113.00
2023-02-04T20:01:33.734Z,109.07
2023-02-04T20:04:04.235Z,120.47
2023-02-04T20:06:34.153Z,113.50
2023-02-04T20:09:04.130Z,113.67
2023-02-04T20:11:38.299Z,124.57
2023-02-04T20:14:26.623Z,132.83
2023-02-04T20:16:57.523Z,116.10
2023-02-04T20:19:28.494Z,125.07
2023-02-04T20:22:11.751Z,126.73
2023-02-04T20:24:41.806Z,122.50
2023-02-04T20:27:17.576Z,127.27
2023-02-04T20:29:45.989Z,139.33
2023-02-04T20:32:19.275Z,131.67
2023-02-04T20:34:47.783Z,136.50
2023-02-04T20:37:19.352Z,146.90
2023-02-04T20:39:48.339Z,140.13
2023-02-04T20:42:26.562Z,142.83
2023-02-04T20:44:55.224Z,144.50
2023-02-04T20:47:25.046Z,146.00
2023-02-04T20:49:55.280Z,142.73
2023-02-04T20:52:42.563Z,154.57
2023-02-04T20:55:22.502Z,151.77
2023-02-04T20:57:53.524Z,142.17
2023-02-04T21:00:30.116Z,156.90
2023-02-04T21:03:01.819Z,161.53
2023-02-04T21:05:30.190Z,153.07
2023-02-04T21:07:58.823Z,145.10
2023-02-04T21:10:27.198Z,141.50
2023-02-04T21:13:01.275Z,153.90
2023-02-04T21:15:29.684Z,177.30
2023-02-04T21:17:58.163Z,152.87
2023-02-04T21:20:26.547Z,139.03
2023-02-04T21:22:54.934Z,141.87
2023-02-04T21:25:23.324Z,137.37
2023-02-04T21:27:51.762Z,148.53
2023-02-04T21:30:24.317Z,142.67
2023-02-04T21:32:52.714Z,132.73
2023-02-04T21:35:24.735Z,154.23
2023-02-04T21:37:53.225Z,152.93
2023-02-04T21:40:22.828Z,153.53
2023-02-04T21:42:51.318Z,142.30
2023-02-04T21:45:22.008Z,140.70
2023-02-04T21:47:51.229Z,140.73
2023-02-04T21:50:20.753Z,151.00
2023-02-04T21:52:49.136Z,140.33
2023-02-04T21:55:19.036Z,128.10
2023-02-04T21:57:47.429Z,137.57
2023-02-04T22:00:15.977Z,128.70
2023-02-04T22:02:45.746Z,137.37
2023-02-04T22:05:14.156Z,135.93
2023-02-04T22:07:42.708Z,137.87
2023-02-04T22:10:12.319Z,134.77
2023-02-04T22:12:40.678Z,118.33
2023-02-04T22:15:25.228Z,131.70
2023-02-04T22:17:55.105Z,136.23
2023-02-04T22:20:25.516Z,127.73
2023-02-04T22:22:54.501Z,139.73
2023-02-04T22:25:22.986Z,142.57
2023-02-04T22:27:51.578Z,136.87
2023-02-04T22:30:20.404Z,138.20
2023-02-04T22:32:49.072Z,146.43
2023-02-04T22:35:19.385Z,144.10
2023-02-04T22:37:47.939Z,137.97
2023-02-04T22:40:16.328Z,133.27
2023-02-04T22:42:44.981Z,157.77
2023-02-04T22:45:13.359Z,142.23
2023-02-04T22:47:41.794Z,137.03
2023-02-04T22:50:10.629Z,126.27
2023-02-04T22:52:41.052Z,149.50
2023-02-04T22:55:10.561Z,157.13
2023-02-04T22:57:39.013Z,168.60
2023-02-04T23:00:09.337Z,177.87
2023-02-04T23:02:37.796Z,139.83
2023-02-04T23:05:06.269Z,137.60
2023-02-04T23:07:34.942Z,141.10
2023-02-04T23:10:04.775Z,150.17
2023-02-04T23:12:33.161Z,157.20
2023-02-04T23:15:01.647Z,187.10
2023-02-04T23:17:30.095Z,141.33
2023-02-04T23:19:58.547Z,151.50
2023-02-04T23:22:26.989Z,162.93
2023-02-04T23:24:55.390Z,145.17
2023-02-04T23:27:26.390Z,129.03
2023-02-04T23:29:54.821Z,132.70
2023-02-04T23:32:24.391Z,129.43
2023-02-04T23:34:52.797Z,125.63
2023-02-04T23:37:21.346Z,120.30
2023-02-04T23:39:49.713Z,143.33
2023-02-04T23:42:18.118Z,117.83
2023-02-04T23:44:47.893Z,115.67
2023-02-04T23:47:16.358Z,107.20
2023-02-04T23:49:44.709Z,113.53
2023-02-04T23:52:13.083Z,110.70
2023-02-04T23:54:41.787Z,121.40
2023-02-04T23:57:11.131Z,124.00
2023-02-04T23:59:42.032Z,123.40
